createdAt,value
2022-10-13T00:00:50.018Z,11.70
2022-10-13T00:03:17.832Z,11.80
2022-10-13T00:05:47.990Z,11.80
2022-10-13T00:08:19.807Z,11.80
2022-10-13T00:10:49.071Z,11.80
2022-10-13T00:13:17.015Z,11.70
2022-10-13T00:15:46.028Z,11.70
2022-10-13T00:18:13.243Z,11.80
2022-10-13T00:20:49.209Z,11.80
2022-10-13T00:23:17.393Z,11.80
2022-10-13T00:25:49.258Z,11.80
2022-10-13T00:28:19.014Z,11.80
2022-10-13T00:30:46.744Z,11.80
2022-10-13T00:33:14.000Z,11.80
2022-10-13T00:35:46.643Z,11.80
2022-10-13T00:38:15.039Z,11.80
2022-10-13T00:40:53.989Z,11.80
2022-10-13T00:43:27.789Z,11.80
2022-10-13T00:45:54.947Z,11.80
2022-10-13T00:48:30.530Z,11.80
2022-10-13T00:50:58.726Z,11.80
2022-10-13T00:53:32.759Z,11.80
2022-10-13T00:56:00.017Z,11.70
2022-10-13T00:58:31.941Z,11.80
2022-10-13T01:00:59.556Z,11.80
2022-10-13T01:03:27.131Z,11.70
2022-10-13T01:05:57.955Z,11.70
2022-10-13T01:08:27.153Z,11.70
2022-10-13T01:11:22.908Z,11.70
2022-10-13T01:14:23.960Z,11.70
2022-10-13T01:16:58.121Z,11.80
2022-10-13T01:19:58.648Z,11.70
2022-10-13T01:22:53.758Z,11.80
2022-10-13T01:25:39.627Z,11.80
2022-10-13T01:28:37.235Z,11.80
2022-10-13T01:31:49.758Z,11.80
2022-10-13T01:34:16.684Z,11.90
2022-10-13T01:37:09.841Z,11.80
2022-10-13T01:40:09.239Z,11.90
2022-10-13T01:42:46.117Z,11.90
2022-10-13T01:45:17.882Z,11.90
2022-10-13T01:47:46.986Z,11.90
2022-10-13T01:50:17.090Z,11.80
2022-10-13T01:52:45.307Z,11.80
2022-10-13T01:55:13.425Z,11.80
2022-10-13T01:57:43.339Z,11.70
2022-10-13T02:00:16.937Z,11.70
2022-10-13T02:02:52.819Z,11.70
2022-10-13T02:05:57.796Z,11.80
2022-10-13T02:08:46.418Z,11.80
2022-10-13T02:11:19.238Z,11.80
2022-10-13T02:14:05.123Z,11.80
2022-10-13T02:16:36.630Z,11.80
2022-10-13T02:19:06.270Z,11.80
2022-10-13T02:21:33.559Z,11.80
2022-10-13T02:24:00.453Z,11.80
2022-10-13T02:26:27.948Z,11.80
2022-10-13T02:28:55.164Z,11.80
2022-10-13T02:31:22.228Z,11.80
2022-10-13T02:33:49.294Z,11.90
2022-10-13T02:36:16.216Z,11.80
2022-10-13T02:38:43.161Z,11.90
2022-10-13T02:41:10.123Z,11.90
2022-10-13T02:43:38.715Z,11.90
2022-10-13T02:46:05.736Z,11.90
2022-10-13T02:48:32.684Z,11.80
2022-10-13T02:50:59.565Z,11.80
2022-10-13T02:53:26.599Z,11.80
2022-10-13T02:55:53.554Z,11.80
2022-10-13T02:58:20.571Z,11.80
2022-10-13T03:00:47.506Z,11.80
2022-10-13T03:03:14.349Z,11.80
2022-10-13T03:05:41.437Z,11.80
2022-10-13T03:08:08.411Z,11.80
2022-10-13T03:10:35.371Z,11.70
2022-10-13T03:13:02.276Z,11.70
2022-10-13T03:15:29.381Z,11.70
2022-10-13T03:17:56.332Z,11.70
2022-10-13T03:20:23.304Z,11.70
2022-10-13T03:22:50.244Z,11.70
2022-10-13T03:25:17.700Z,11.70
2022-10-13T03:27:44.536Z,11.70
2022-10-13T03:30:11.886Z,11.70
2022-10-13T03:32:38.999Z,11.70
2022-10-13T03:35:06.783Z,11.70
2022-10-13T03:37:33.739Z,11.70
2022-10-13T03:40:00.758Z,11.70
2022-10-13T03:42:27.798Z,11.60
2022-10-13T03:44:56.477Z,11.70
2022-10-13T03:47:23.893Z,11.70
2022-10-13T03:49:50.854Z,11.60
2022-10-13T03:52:18.112Z,11.60
2022-10-13T03:54:45.224Z,11.60
2022-10-13T03:57:12.274Z,11.60
2022-10-13T03:59:42.457Z,11.60
2022-10-13T04:02:09.615Z,11.60
2022-10-13T04:04:38.735Z,11.60
2022-10-13T04:07:06.957Z,11.60
2022-10-13T04:09:34.013Z,11.60
2022-10-13T04:12:00.959Z,11.60
2022-10-13T04:14:27.973Z,11.70
2022-10-13T04:16:55.098Z,11.60
2022-10-13T04:19:22.283Z,11.60
2022-10-13T04:21:49.217Z,11.60
2022-10-13T04:24:17.728Z,11.60
2022-10-13T04:26:46.358Z,11.70
2022-10-13T04:29:13.811Z,11.60
2022-10-13T04:31:43.907Z,11.60
2022-10-13T04:34:12.273Z,11.70
2022-10-13T04:36:39.199Z,11.60
2022-10-13T04:39:06.247Z,11.60
2022-10-13T04:41:33.525Z,11.60
2022-10-13T04:44:02.557Z,11.60
2022-10-13T04:46:29.804Z,11.60
2022-10-13T04:48:57.285Z,11.60
2022-10-13T04:51:26.173Z,11.60
2022-10-13T04:54:01.195Z,11.50
2022-10-13T04:56:28.996Z,11.50
2022-10-13T04:58:55.951Z,11.50
2022-10-13T05:01:24.884Z,11.50
2022-10-13T05:03:57.303Z,11.50
2022-10-13T05:06:26.715Z,11.50
2022-10-13T05:08:53.714Z,11.50
2022-10-13T05:11:20.948Z,11.40
2022-10-13T05:13:49.100Z,11.50
2022-10-13T05:16:17.969Z,11.50
2022-10-13T05:18:45.381Z,11.50
2022-10-13T05:21:15.107Z,11.40
2022-10-13T05:23:42.425Z,11.40
2022-10-13T05:26:17.696Z,11.40
2022-10-13T05:28:45.222Z,11.40
2022-10-13T05:31:21.872Z,11.40
2022-10-13T05:33:49.926Z,11.40
2022-10-13T05:36:19.859Z,11.40
2022-10-13T05:38:54.190Z,11.40
2022-10-13T05:41:23.304Z,11.40
2022-10-13T05:43:53.129Z,11.30
2022-10-13T05:46:20.247Z,11.30
2022-10-13T05:48:47.549Z,11.30
2022-10-13T05:51:22.928Z,11.30
2022-10-13T05:53:59.695Z,11.30
2022-10-13T05:56:33.267Z,11.20
2022-10-13T05:59:03.973Z,11.20
2022-10-13T06:01:34.484Z,11.20
2022-10-13T06:04:06.123Z,11.10
2022-10-13T06:06:33.170Z,11.10
2022-10-13T06:09:01.320Z,11.20
2022-10-13T06:11:28.156Z,11.20
2022-10-13T06:13:55.052Z,11.10
2022-10-13T06:16:22.017Z,11.10
2022-10-13T06:18:49.006Z,11.10
2022-10-13T06:21:15.919Z,11.20
2022-10-13T06:23:42.903Z,11.10
2022-10-13T06:26:09.867Z,11.10
2022-10-13T06:28:37.089Z,11.10
2022-10-13T06:31:06.519Z,11.20
2022-10-13T06:33:34.094Z,11.10
2022-10-13T06:36:03.398Z,11.10
2022-10-13T06:38:31.178Z,11.20
2022-10-13T06:41:02.023Z,11.20
2022-10-13T06:43:35.970Z,11.20
2022-10-13T06:46:07.350Z,11.30
2022-10-13T06:48:34.394Z,11.30
2022-10-13T06:51:06.375Z,11.30
2022-10-13T06:53:33.307Z,11.30
2022-10-13T06:56:01.801Z,11.40
2022-10-13T06:58:29.117Z,11.40
2022-10-13T07:00:56.613Z,11.40
2022-10-13T07:03:25.065Z,11.40
2022-10-13T07:05:52.339Z,11.40
2022-10-13T07:08:19.496Z,11.50
2022-10-13T07:10:46.786Z,11.50
2022-10-13T07:13:13.755Z,11.60
2022-10-13T07:15:41.227Z,11.60
2022-10-13T07:18:08.214Z,11.70
2022-10-13T07:20:35.365Z,11.70
2022-10-13T07:23:02.644Z,11.70
2022-10-13T07:25:29.892Z,11.70
2022-10-13T07:27:59.361Z,11.80
2022-10-13T07:30:27.240Z,11.80
2022-10-13T07:32:54.246Z,11.90
2022-10-13T07:35:24.778Z,11.90
2022-10-13T07:37:55.156Z,12.00
2022-10-13T07:40:22.080Z,12.00
2022-10-13T07:42:49.285Z,12.00
2022-10-13T07:45:16.644Z,12.10
2022-10-13T07:47:43.550Z,12.10
2022-10-13T07:50:10.833Z,12.10
2022-10-13T07:52:37.920Z,12.10
2022-10-13T07:55:05.700Z,12.10
2022-10-13T07:57:32.856Z,12.20
2022-10-13T07:59:59.716Z,12.10
2022-10-13T08:02:26.925Z,12.20
2022-10-13T08:04:54.064Z,12.20
2022-10-13T08:07:21.285Z,12.30
2022-10-13T08:09:48.462Z,12.30
2022-10-13T08:12:15.350Z,12.30
2022-10-13T08:14:42.499Z,12.30
2022-10-13T08:17:09.749Z,12.40
2022-10-13T08:19:36.790Z,12.40
2022-10-13T08:22:06.641Z,12.40
2022-10-13T08:24:36.894Z,12.40
2022-10-13T08:27:03.880Z,12.50
2022-10-13T08:29:30.796Z,12.50
2022-10-13T08:31:57.693Z,12.50
2022-10-13T08:34:25.480Z,12.60
2022-10-13T08:36:54.618Z,12.70
2022-10-13T08:39:22.629Z,12.60
2022-10-13T08:41:50.192Z,12.70
2022-10-13T08:45:05.911Z,12.70
2022-10-13T08:47:45.044Z,12.80
2022-10-13T08:50:15.747Z,12.80
2022-10-13T08:52:59.932Z,12.90
2022-10-13T08:55:33.579Z,13.00
2022-10-13T08:58:02.784Z,13.10
2022-10-13T09:00:30.486Z,13.20
2022-10-13T09:03:14.890Z,13.30
2022-10-13T09:05:53.591Z,13.40
2022-10-13T09:08:22.302Z,13.50
2022-10-13T09:10:51.359Z,13.60
2022-10-13T09:13:19.741Z,13.70
2022-10-13T09:15:50.364Z,13.70
2022-10-13T09:18:17.354Z,13.80
2022-10-13T09:20:44.478Z,13.90
2022-10-13T09:23:14.455Z,13.90
2022-10-13T09:25:44.241Z,13.90
2022-10-13T09:28:21.552Z,13.90
2022-10-13T09:30:48.814Z,14.00
2022-10-13T09:33:20.799Z,14.00
2022-10-13T09:36:08.258Z,14.00
2022-10-13T09:38:35.203Z,14.00
2022-10-13T09:41:20.475Z,14.10
2022-10-13T09:43:47.545Z,14.10
2022-10-13T09:46:39.065Z,14.10
2022-10-13T09:49:36.178Z,14.10
2022-10-13T09:52:19.229Z,14.10
2022-10-13T09:54:50.199Z,14.00
2022-10-13T09:57:33.156Z,14.00
2022-10-13T10:00:22.015Z,14.10
2022-10-13T10:03:21.239Z,14.10
2022-10-13T10:06:01.748Z,14.20
2022-10-13T10:09:05.243Z,14.30
2022-10-13T10:11:42.388Z,14.30
2022-10-13T10:14:17.585Z,14.30
2022-10-13T10:17:04.185Z,14.30
2022-10-13T10:19:40.156Z,14.30
2022-10-13T10:22:18.672Z,14.30
2022-10-13T10:24:48.852Z,14.40
2022-10-13T10:27:41.388Z,14.40
2022-10-13T10:30:16.862Z,14.40
2022-10-13T10:32:54.649Z,14.50
2022-10-13T10:35:44.336Z,14.50
2022-10-13T10:38:14.295Z,14.50
2022-10-13T10:41:05.901Z,14.60
2022-10-13T10:43:43.330Z,14.60
2022-10-13T10:46:17.337Z,14.70
2022-10-13T10:48:47.376Z,14.70
2022-10-13T10:51:14.855Z,14.70
2022-10-13T10:53:45.030Z,14.80
2022-10-13T10:56:33.681Z,14.80
2022-10-13T10:59:43.135Z,14.80
2022-10-13T11:02:19.480Z,14.90
2022-10-13T11:04:52.578Z,15.00
2022-10-13T11:07:22.442Z,15.10
2022-10-13T11:09:50.468Z,15.20
2022-10-13T11:12:20.811Z,15.30
2022-10-13T11:14:54.248Z,15.40
2022-10-13T11:17:34.428Z,15.50
2022-10-13T11:20:01.411Z,15.60
2022-10-13T11:22:30.549Z,15.70
2022-10-13T11:25:35.326Z,15.80
2022-10-13T11:28:22.364Z,15.90
2022-10-13T11:30:56.551Z,15.90
2022-10-13T11:33:38.621Z,16.00
2022-10-13T11:36:43.317Z,16.00
2022-10-13T11:39:13.019Z,16.00
2022-10-13T11:42:02.878Z,16.10
2022-10-13T11:44:57.087Z,16.20
2022-10-13T11:47:42.787Z,16.20
2022-10-13T11:50:37.063Z,16.20
2022-10-13T11:53:24.489Z,16.30
2022-10-13T11:56:01.375Z,16.30
2022-10-13T11:58:30.737Z,16.30
2022-10-13T12:00:59.001Z,16.40
2022-10-13T12:03:27.616Z,16.40
2022-10-13T12:06:01.910Z,16.50
2022-10-13T12:08:30.627Z,16.40
2022-10-13T12:11:00.005Z,16.50
2022-10-13T12:13:30.865Z,16.50
2022-10-13T12:16:03.044Z,16.50
2022-10-13T12:18:38.141Z,16.50
2022-10-13T12:21:16.410Z,16.50
2022-10-13T12:23:43.807Z,16.60
2022-10-13T12:26:21.477Z,16.60
2022-10-13T12:29:01.555Z,16.70
2022-10-13T12:31:38.077Z,16.70
2022-10-13T12:34:14.428Z,16.70
2022-10-13T12:36:42.874Z,16.70
2022-10-13T12:39:14.363Z,16.80
2022-10-13T12:41:44.888Z,16.90
2022-10-13T12:44:22.854Z,16.90
2022-10-13T12:46:52.438Z,17.00
2022-10-13T12:49:31.511Z,17.00
2022-10-13T12:52:15.549Z,17.00
2022-10-13T12:54:55.141Z,17.00
2022-10-13T12:57:27.475Z,17.00
2022-10-13T12:59:54.482Z,17.10
2022-10-13T13:02:30.996Z,17.10
2022-10-13T13:04:58.819Z,17.20
2022-10-13T13:07:39.777Z,17.20
2022-10-13T13:10:20.696Z,17.20
2022-10-13T13:12:49.586Z,17.20
2022-10-13T13:15:26.008Z,17.20
2022-10-13T13:17:58.749Z,17.20
2022-10-13T13:20:29.419Z,17.20
2022-10-13T13:22:56.409Z,17.20
2022-10-13T13:25:23.859Z,17.20
2022-10-13T13:27:51.318Z,17.20
2022-10-13T13:30:22.988Z,17.10
2022-10-13T13:32:50.878Z,17.00
2022-10-13T13:35:18.995Z,16.90
2022-10-13T13:37:49.848Z,16.90
2022-10-13T13:40:21.888Z,16.90
2022-10-13T13:42:49.145Z,16.90
2022-10-13T13:45:17.459Z,16.80
2022-10-13T13:47:45.161Z,16.80
2022-10-13T13:50:24.582Z,16.80
2022-10-13T13:52:52.364Z,16.80
2022-10-13T13:55:19.387Z,16.80
2022-10-13T13:57:46.363Z,16.80
2022-10-13T14:00:15.172Z,16.90
2022-10-13T14:02:43.859Z,16.80
2022-10-13T14:05:12.370Z,16.80
2022-10-13T14:07:40.175Z,16.80
2022-10-13T14:10:09.048Z,16.90
2022-10-13T14:12:36.550Z,16.80
2022-10-13T14:15:04.000Z,16.80
2022-10-13T14:17:31.130Z,16.70
2022-10-13T14:19:57.994Z,16.70
2022-10-13T14:22:25.234Z,16.70
2022-10-13T14:24:52.284Z,16.60
2022-10-13T14:27:19.242Z,16.50
2022-10-13T14:29:46.263Z,16.50
2022-10-13T14:32:14.332Z,16.50
2022-10-13T14:34:41.194Z,16.50
2022-10-13T14:37:08.235Z,16.50
2022-10-13T14:39:35.122Z,16.50
2022-10-13T14:42:02.127Z,16.50
2022-10-13T14:44:29.015Z,16.40
2022-10-13T14:46:56.147Z,16.40
2022-10-13T14:49:23.170Z,16.40
2022-10-13T14:51:50.110Z,16.40
2022-10-13T14:54:17.018Z,16.30
2022-10-13T14:56:44.871Z,16.30
2022-10-13T14:59:12.626Z,16.40
2022-10-13T15:01:41.659Z,16.30
2022-10-13T15:04:09.498Z,16.20
2022-10-13T15:06:39.319Z,16.30
2022-10-13T15:11:34.489Z,16.10
2022-10-13T15:14:01.332Z,16.20
2022-10-13T15:16:32.599Z,16.20
2022-10-13T15:19:00.376Z,16.10
2022-10-13T15:21:27.275Z,16.10
2022-10-13T15:23:54.364Z,16.10
2022-10-13T15:26:22.072Z,16.10
2022-10-13T15:28:51.500Z,16.20
2022-10-13T15:31:22.018Z,16.20
2022-10-13T15:33:51.815Z,16.20
2022-10-13T15:36:20.005Z,16.20
2022-10-13T15:38:47.314Z,16.20
2022-10-13T15:41:14.253Z,16.10
2022-10-13T15:43:41.182Z,16.10
2022-10-13T15:46:12.934Z,16.20
2022-10-13T15:48:40.250Z,16.10
2022-10-13T15:51:15.962Z,16.10
2022-10-13T15:53:42.932Z,16.10
2022-10-13T15:56:09.885Z,16.00
2022-10-13T15:58:37.222Z,16.00
2022-10-13T16:01:09.009Z,15.90
2022-10-13T16:03:36.521Z,15.90
2022-10-13T16:06:06.057Z,15.90
2022-10-13T16:08:36.111Z,15.80
2022-10-13T16:11:10.897Z,15.80
2022-10-13T16:13:38.604Z,15.90
2022-10-13T16:16:05.815Z,15.80
2022-10-13T16:18:37.391Z,15.70
2022-10-13T16:21:17.424Z,15.70
2022-10-13T16:23:46.947Z,15.60
2022-10-13T16:26:14.418Z,15.60
2022-10-13T16:28:41.625Z,15.60
2022-10-13T16:31:12.835Z,15.60
2022-10-13T16:33:41.542Z,15.50
2022-10-13T16:36:11.569Z,15.40
2022-10-13T16:38:38.649Z,15.30
2022-10-13T16:41:07.886Z,15.30
2022-10-13T16:43:35.028Z,15.40
2022-10-13T16:46:04.776Z,15.30
2022-10-13T16:48:33.125Z,15.30
2022-10-13T16:51:04.391Z,15.20
2022-10-13T16:53:31.416Z,15.10
2022-10-13T16:55:58.257Z,15.10
2022-10-13T16:58:25.163Z,15.00
2022-10-13T17:00:52.236Z,14.90
2022-10-13T17:03:19.511Z,14.90
2022-10-13T17:05:46.394Z,15.50
2022-10-13T17:08:13.339Z,14.90
2022-10-13T17:10:40.249Z,14.80
2022-10-13T17:13:07.700Z,14.80
2022-10-13T17:15:34.529Z,14.80
2022-10-13T17:18:01.493Z,14.80
2022-10-13T17:20:28.327Z,14.80
2022-10-13T17:22:55.301Z,14.80
2022-10-13T17:25:22.132Z,14.80
2022-10-13T17:27:49.019Z,14.80
2022-10-13T17:30:16.030Z,14.60
2022-10-13T17:32:43.073Z,14.50
2022-10-13T17:35:14.305Z,14.40
2022-10-13T17:37:41.462Z,14.40
2022-10-13T17:40:08.780Z,14.40
2022-10-13T17:42:35.842Z,14.40
2022-10-13T17:45:03.075Z,14.30
2022-10-13T17:47:30.121Z,14.30
2022-10-13T17:49:57.048Z,14.20
2022-10-13T17:52:24.328Z,14.20
2022-10-13T17:54:51.204Z,14.20
2022-10-13T17:57:18.510Z,14.20
2022-10-13T17:59:45.937Z,14.20
2022-10-13T18:02:13.101Z,14.10
2022-10-13T18:04:40.304Z,14.10
2022-10-13T18:07:07.370Z,14.20
2022-10-13T18:09:34.397Z,14.10
2022-10-13T18:12:01.351Z,14.20
2022-10-13T18:14:28.397Z,14.20
2022-10-13T18:16:56.381Z,14.20
2022-10-13T18:19:23.315Z,14.20
2022-10-13T18:21:50.644Z,14.20
2022-10-13T18:24:17.762Z,14.20
2022-10-13T18:26:45.802Z,14.30
2022-10-13T18:29:13.051Z,14.20
2022-10-13T18:31:41.729Z,14.20
2022-10-13T18:34:14.136Z,14.20
2022-10-13T18:36:43.654Z,14.20
2022-10-13T18:39:25.749Z,14.10
2022-10-13T18:41:54.167Z,14.10
2022-10-13T18:44:22.496Z,14.10
2022-10-13T18:46:56.353Z,14.10
2022-10-13T18:49:30.924Z,14.10
2022-10-13T18:51:59.291Z,14.10
2022-10-13T18:54:27.630Z,14.00
2022-10-13T18:56:54.742Z,14.00
2022-10-13T18:59:22.773Z,13.90
2022-10-13T19:01:50.303Z,13.80
2022-10-13T19:04:17.428Z,13.80
2022-10-13T19:06:44.978Z,13.90
2022-10-13T19:09:14.340Z,13.90
2022-10-13T19:11:41.768Z,13.90
2022-10-13T19:14:12.435Z,13.90
2022-10-13T19:16:41.872Z,13.90
2022-10-13T19:19:09.303Z,13.90
2022-10-13T19:21:37.304Z,13.90
2022-10-13T19:24:04.541Z,13.90
2022-10-13T19:26:33.839Z,13.80
2022-10-13T19:29:09.753Z,13.80
2022-10-13T19:31:38.322Z,13.70
2022-10-13T19:34:05.324Z,13.70
2022-10-13T19:36:35.384Z,13.70
2022-10-13T19:39:05.092Z,13.80
2022-10-13T19:41:32.521Z,13.80
2022-10-13T19:44:00.312Z,13.70
2022-10-13T19:46:27.529Z,13.80
2022-10-13T19:48:54.546Z,13.80
2022-10-13T19:51:21.425Z,13.80
2022-10-13T19:53:48.380Z,13.80
2022-10-13T19:56:24.329Z,13.70
2022-10-13T19:58:51.906Z,13.80
2022-10-13T20:01:19.990Z,13.70
2022-10-13T20:03:47.675Z,13.70
2022-10-13T20:06:15.642Z,13.80
2022-10-13T20:08:43.007Z,13.70
2022-10-13T20:11:11.889Z,13.70
2022-10-13T20:13:38.807Z,13.70
2022-10-13T20:16:13.488Z,13.70
2022-10-13T20:18:41.249Z,13.60
2022-10-13T20:21:11.773Z,13.50
2022-10-13T20:23:40.858Z,13.50
2022-10-13T20:26:11.497Z,13.50
2022-10-13T20:28:43.503Z,13.40
2022-10-13T20:31:12.797Z,13.30
2022-10-13T20:33:40.464Z,13.20
2022-10-13T20:36:11.352Z,13.10
2022-10-13T20:38:38.607Z,13.10
2022-10-13T20:41:08.393Z,13.10
2022-10-13T20:43:36.990Z,13.00
2022-10-13T20:46:06.710Z,13.00
2022-10-13T20:48:58.189Z,12.90
2022-10-13T20:51:25.793Z,12.80
2022-10-13T20:53:53.141Z,12.70
2022-10-13T20:56:23.061Z,12.60
2022-10-13T20:58:50.138Z,12.60
2022-10-13T21:01:18.977Z,12.60
2022-10-13T21:03:46.390Z,12.60
2022-10-13T21:06:14.665Z,12.60
2022-10-13T21:08:45.762Z,12.50
2022-10-13T21:11:15.012Z,12.50
2022-10-13T21:13:43.231Z,12.50
2022-10-13T21:16:19.173Z,12.50
2022-10-13T21:18:49.013Z,12.40
2022-10-13T21:21:22.360Z,12.40
2022-10-13T21:23:51.414Z,12.40
2022-10-13T21:26:21.673Z,12.30
2022-10-13T21:28:50.045Z,12.30
2022-10-13T21:31:19.638Z,12.30
2022-10-13T21:33:46.550Z,12.30
2022-10-13T21:36:16.195Z,12.30
2022-10-13T21:38:44.171Z,12.40
2022-10-13T21:41:12.705Z,12.40
2022-10-13T21:43:40.117Z,12.40
2022-10-13T21:46:16.843Z,12.40
2022-10-13T21:48:44.602Z,12.40
2022-10-13T21:51:20.410Z,12.40
2022-10-13T21:53:52.998Z,12.50
2022-10-13T21:56:20.600Z,12.50
2022-10-13T21:58:49.045Z,12.50
2022-10-13T22:01:17.647Z,12.50
2022-10-13T22:03:44.740Z,12.50
2022-10-13T22:06:18.461Z,12.50
2022-10-13T22:08:48.408Z,12.50
2022-10-13T22:11:16.005Z,12.50
2022-10-13T22:13:43.181Z,12.50
2022-10-13T22:16:22.501Z,12.50
2022-10-13T22:18:52.739Z,12.50
2022-10-13T22:21:22.870Z,12.50
2022-10-13T22:23:49.936Z,12.50
2022-10-13T22:26:18.729Z,12.50
2022-10-13T22:28:45.737Z,12.50
2022-10-13T22:31:13.642Z,12.50
2022-10-13T22:33:41.983Z,12.50
2022-10-13T22:36:20.308Z,12.50
2022-10-13T22:38:48.811Z,12.50
2022-10-13T22:41:17.913Z,12.50
2022-10-13T22:43:48.689Z,12.50
2022-10-13T22:46:18.371Z,12.50
2022-10-13T22:48:45.519Z,12.50
2022-10-13T22:51:14.907Z,12.50
2022-10-13T22:53:41.888Z,12.50
2022-10-13T22:56:11.719Z,12.50
2022-10-13T22:58:38.836Z,12.50
2022-10-13T23:01:12.005Z,12.50
2022-10-13T23:03:39.905Z,12.50
2022-10-13T23:06:08.523Z,12.50
2022-10-13T23:08:35.589Z,12.50
2022-10-13T23:11:02.519Z,12.50
2022-10-13T23:13:29.508Z,12.50
2022-10-13T23:16:02.564Z,12.50
2022-10-13T23:18:29.576Z,12.50
2022-10-13T23:20:57.069Z,12.60
2022-10-13T23:23:24.291Z,12.50
2022-10-13T23:25:51.229Z,12.60
2022-10-13T23:28:18.300Z,12.60
2022-10-13T23:30:45.321Z,12.60
2022-10-13T23:33:12.288Z,12.60
2022-10-13T23:35:39.149Z,12.50
2022-10-13T23:38:06.034Z,12.50
2022-10-13T23:40:33.829Z,12.50
2022-10-13T23:43:00.710Z,12.50
2022-10-13T23:45:27.695Z,12.50
2022-10-13T23:47:54.616Z,12.50
2022-10-13T23:50:21.542Z,12.50
2022-10-13T23:52:48.426Z,12.50
2022-10-13T23:55:15.495Z,12.50
2022-10-13T23:57:42.420Z,12.50
